Time;durP1;ratioP1;P1;durP2;ratioP2;P2;SDS_P1;SDS_P2;PMS_P1;PMS_P2;Temp;Humidity;BMP_temperature;BMP_pressure;BME280_temperature;BME280_humidity;BME280_pressure;Samples;Min_cycle;Max_cycle;Signal;HPM_P1;HPM_P2
2023/08/24 05:18:15;;;;;;;;;;;;;;;;;;5007085;28;19928;-41
2023/08/24 05:20:41;;;;;;;;;;;;;;;;;;5011595;28;20008;-42
2023/08/24 05:23:06;;;;;;;;;;;;;;;;;;5011758;28;19905;-40
2023/08/24 05:25:34;;;;;;;;;;;;;;;;;;5010400;28;19921;-40
2023/08/24 05:27:59;;;;;;;;;;;;;;;;;;5011365;28;19968;-41
2023/08/24 05:30:28;;;;;;;;;;;;;;;;;;5007973;28;19932;-41
2023/08/24 05:32:54;;;;;;;;;;;;;;;;;;5010263;28;19914;-41
2023/08/24 05:35:22;;;;;;;;;;;;;;;;;;5011473;28;19916;-41
2023/08/24 05:37:48;;;;;;;;;;;;;;;;;;5007539;28;19932;-40
2023/08/24 05:40:14;;;;;;;;;;;;;;;;;;5011411;28;19910;-40
2023/08/24 05:42:40;;;;;;;;;;;;;;;;;;5011519;28;19952;-41
2023/08/24 05:45:06;;;;;;;;;;;;;;;;;;5011127;28;19909;-40
2023/08/24 05:47:31;;;;;;;;;;;;;;;;;;5009847;28;19921;-40
2023/08/24 05:49:57;;;;;;;;;;;;;;;;;;5009733;28;20398;-41
2023/08/24 05:52:23;;;;;;;;;;;;;;;;;;4992595;28;20000;-40
2023/08/24 05:54:49;;;;;;;;;;;;;;;;;;5006907;28;19935;-40
2023/08/24 05:57:15;;;;;;;;;;;;;;;;;;5010506;28;20376;-40
2023/08/24 05:59:41;;;;;;;;;;;;;;;;;;5006509;28;20587;-41
2023/08/24 06:02:07;;;;;;;;;;;;;;;;;;5010788;28;19918;-40
2023/08/24 06:04:33;;;;;;;;;;;;;;;;;;5012460;28;19936;-40
2023/08/24 06:06:58;;;;;;;;;;;;;;;;;;5004135;28;19917;-40
2023/08/24 06:09:24;;;;;;;;;;;;;;;;;;5007192;28;20368;-41
2023/08/24 06:11:51;;;;;;;;;;;;;;;;;;5010856;28;19910;-40
2023/08/24 06:14:17;;;;;;;;;;;;;;;;;;5008708;28;20382;-40
2023/08/24 06:16:43;;;;;;;;;;;;;;;;;;5011430;28;19924;-41
2023/08/24 06:19:08;;;;;;;;;;;;;;;;;;5011715;28;19921;-41
2023/08/24 06:21:34;;;;;;;;;;;;;;;;;;5011897;28;19905;-41
2023/08/24 06:24:01;;;;;;;;;;;;;;;;;;5010679;28;20415;-41
2023/08/24 06:26:26;;;;;;;;;;;;;;;;;;5008338;28;19917;-41
2023/08/24 06:28:52;;;;;;;;;;;;;;;;;;5009324;28;20384;-40
2023/08/24 06:31:18;;;;;;;;;;;;;;;;;;5007744;28;19917;-41
2023/08/24 06:33:44;;;;;;;;;;;;;;;;;;5011781;28;20634;-42
2023/08/24 06:36:11;;;;;;;;;;;;;;;;;;5010386;28;19913;-41
2023/08/24 06:38:37;;;;;;;;;;;;;;;;;;5009739;28;20367;-41
2023/08/24 06:41:03;;;;;;;;;;;;;;;;;;5011764;28;19909;-41
2023/08/24 06:43:29;;;;;;;;;;;;;;;;;;5009496;28;19941;-41
2023/08/24 06:45:55;;;;;;;;;;;;;;;;;;5004873;28;19988;-41
2023/08/24 06:48:21;;;;;;;;;;;;;;;;;;5011860;28;19909;-41
2023/08/24 06:50:47;;;;;;;;;;;;;;;;;;5001419;28;19925;-41
2023/08/24 06:53:14;;;;;;;;;;;;;;;;;;5003082;28;19909;-42
2023/08/24 06:55:40;;;;;;;;;;;;;;;;;;5007728;28;19914;-42
2023/08/24 06:58:06;;;;;;;;;;;;;;;;;;5000240;28;19914;-42
2023/08/24 07:00:32;;;;;;;;;;;;;;;;;;4991958;28;20004;-41
2023/08/24 07:02:58;;;;;;;;;;;;;;;;;;5008093;28;19913;-41
2023/08/24 07:05:24;;;;;;;;;;;;;;;;;;5000527;28;19914;-41
2023/08/24 07:07:50;;;;;;;;;;;;;;;;;;4992254;28;19913;-43
2023/08/24 07:10:15;;;;;;;;;;;;;;;;;;4992445;28;19910;-41
2023/08/24 07:12:41;;;;;;;;;;;;;;;;;;4995342;28;19973;-42
2023/08/24 07:15:07;;;;;;;;;;;;;;;;;;5011321;28;19922;-43
2023/08/24 07:17:33;;;;;;;;;;;;;;;;;;5011247;28;20008;-43
2023/08/24 07:19:59;;;;;;;;;;;;;;;;;;5011559;28;20008;-43
2023/08/24 07:22:28;;;;;;;;;;;;;;;;;;5011573;28;20000;-44
2023/08/24 07:24:54;;;;;;;;;;;;;;;;;;5011921;28;20292;-42
2023/08/24 07:27:20;;;;;;;;;;;;;;;;;;5011282;28;19910;-43
2023/08/24 07:29:46;;;;;;;;;;;;;;;;;;5011850;28;19920;-43
2023/08/24 07:32:12;;;;;;;;;;;;;;;;;;5010176;28;20375;-42
2023/08/24 07:34:38;;;;;;;;;;;;;;;;;;5011788;28;19909;-42
2023/08/24 07:37:04;;;;;;;;;;;;;;;;;;5010096;28;19917;-42
2023/08/24 07:39:30;;;;;;;;;;;;;;;;;;5008665;28;19913;-42
2023/08/24 07:41:56;;;;;;;;;;;;;;;;;;5008579;28;19952;-45
2023/08/24 07:44:22;;;;;;;;;;;;;;;;;;5007751;28;19924;-42
2023/08/24 07:46:48;;;;;;;;;;;;;;;;;;5009704;28;19980;-42
2023/08/24 07:49:13;;;;;;;;;;;;;;;;;;5010491;28;19916;-42
2023/08/24 07:51:39;;;;;;;;;;;;;;;;;;5010489;28;19910;-41
2023/08/24 07:54:06;;;;;;;;;;;;;;;;;;5010849;28;20345;-41
2023/08/24 07:56:32;;;;;;;;;;;;;;;;;;5010056;28;19909;-42
2023/08/24 07:58:58;;;;;;;;;;;;;;;;;;5010480;28;19914;-42
2023/08/24 08:01:24;;;;;;;;;;;;;;;;;;5010455;28;19996;-43
2023/08/24 08:03:50;;;;;;;;;;;;;;;;;;5010484;28;20610;-42
2023/08/24 08:06:16;;;;;;;;;;;;;;;;;;5010453;28;19972;-42
2023/08/24 08:08:42;;;;;;;;;;;;;;;;;;5010664;28;19909;-42
2023/08/24 08:11:08;;;;;;;;;;;;;;;;;;5010563;28;19922;-41
2023/08/24 08:13:33;;;;;;;;;;;;;;;;;;5010790;28;20257;-43
2023/08/24 08:15:59;;;;;;;;;;;;;;;;;;5010643;28;19910;-42
2023/08/24 08:18:25;;;;;;;;;;;;;;;;;;5013871;28;19921;-42
2023/08/24 08:20:52;;;;;;;;;;;;;;;;;;5014117;28;19949;-43
2023/08/24 08:23:18;;;;;;;;;;;;;;;;;;5012390;28;19968;-41
2023/08/24 08:25:44;;;;;;;;;;;;;;;;;;5013538;28;19910;-42
2023/08/24 08:28:09;;;;;;;;;;;;;;;;;;5013724;28;19996;-42
2023/08/24 08:30:35;;;;;;;;;;;;;;;;;;5014193;28;20288;-43
2023/08/24 08:33:01;;;;;;;;;;;;;;;;;;5012985;28;19909;-43
2023/08/24 08:35:27;;;;;;;;;;;;;;;;;;5012851;28;19945;-43
2023/08/24 08:37:53;;;;;;;;;;;;;;;;;;5012803;28;19913;-43
2023/08/24 08:40:19;;;;;;;;;;;;;;;;;;5012407;28;20379;-42
2023/08/24 08:42:45;;;;;;;;;;;;;;;;;;5012501;28;19910;-42
2023/08/24 08:45:11;;;;;;;;;;;;;;;;;;5012615;28;19914;-42
2023/08/24 08:47:37;;;;;;;;;;;;;;;;;;5012653;28;20288;-43
2023/08/24 08:50:03;;;;;;;;;;;;;;;;;;5012552;28;19941;-43
2023/08/24 08:52:29;;;;;;;;;;;;;;;;;;5012519;28;19913;-42
2023/08/24 08:54:55;;;;;;;;;;;;;;;;;;5012244;28;19909;-43
2023/08/24 08:57:21;;;;;;;;;;;;;;;;;;5012023;28;19920;-41
2023/08/24 08:59:49;;;;;;;;;;;;;;;;;;5012365;28;20442;-42
2023/08/24 09:02:15;;;;;;;;;;;;;;;;;;5012180;28;19924;-42
2023/08/24 09:04:41;;;;;;;;;;;;;;;;;;5012142;28;20265;-42
2023/08/24 09:07:10;;;;;;;;;;;;;;;;;;5012349;28;19953;-42
2023/08/24 09:09:36;;;;;;;;;;;;;;;;;;5012410;28;19910;-41
2023/08/24 09:12:02;;;;;;;;;;;;;;;;;;5012050;28;19976;-42
2023/08/24 09:14:28;;;;;;;;;;;;;;;;;;5011978;28;19917;-43
2023/08/24 09:16:54;;;;;;;;;;;;;;;;;;5008877;28;19913;-43
2023/08/24 09:19:20;;;;;;;;;;;;;;;;;;5010549;28;19964;-42
2023/08/24 09:21:46;;;;;;;;;;;;;;;;;;5008875;28;19956;-42
2023/08/24 09:24:12;;;;;;;;;;;;;;;;;;5010039;28;19956;-43
2023/08/24 09:26:42;;;;;;;;;;;;;;;;;;5010114;28;19909;-43
2023/08/24 09:29:08;;;;;;;;;;;;;;;;;;5009338;28;19914;-41
2023/08/24 09:31:34;;;;;;;;;;;;;;;;;;5010817;28;19916;-42
2023/08/24 09:34:00;;;;;;;;;;;;;;;;;;5009719;28;19952;-42
2023/08/24 09:36:26;;;;;;;;;;;;;;;;;;5009555;28;20568;-43
2023/08/24 09:38:52;;;;;;;;;;;;;;;;;;5009586;28;19914;-43
2023/08/24 09:41:18;;;;;;;;;;;;;;;;;;5009841;28;19936;-42
2023/08/24 09:43:44;;;;;;;;;;;;;;;;;;5009573;28;20383;-41
2023/08/24 09:46:10;;;;;;;;;;;;;;;;;;5009640;28;19910;-42
2023/08/24 09:48:36;;;;;;;;;;;;;;;;;;5010036;28;20380;-42
2023/08/24 09:51:01;;;;;;;;;;;;;;;;;;5009437;28;19916;-41
2023/08/24 09:53:27;;;;;;;;;;;;;;;;;;5009217;28;20360;-41
2023/08/24 09:55:54;;;;;;;;;;;;;;;;;;5009444;28;19914;-42
2023/08/24 09:58:20;;;;;;;;;;;;;;;;;;5009371;28;19913;-42
2023/08/24 10:00:46;;;;;;;;;;;;;;;;;;5009428;28;19917;-42
2023/08/24 10:03:14;;;;;;;;;;;;;;;;;;5009380;28;19972;-43
2023/08/24 10:05:39;;;;;;;;;;;;;;;;;;5009215;28;19963;-42
2023/08/24 10:08:05;;;;;;;;;;;;;;;;;;5010212;28;19910;-44
2023/08/24 10:10:34;;;;;;;;;;;;;;;;;;5008008;28;20285;-42
2023/08/24 10:12:59;;;;;;;;;;;;;;;;;;5009054;28;19913;-42
2023/08/24 10:15:25;;;;;;;;;;;;;;;;;;5009149;28;20315;-42
2023/08/24 10:17:51;;;;;;;;;;;;;;;;;;5008630;28;19921;-43
2023/08/24 10:20:17;;;;;;;;;;;;;;;;;;5009460;28;19956;-42
2023/08/24 10:22:43;;;;;;;;;;;;;;;;;;5008766;28;19913;-43
2023/08/24 10:25:09;;;;;;;;;;;;;;;;;;5009088;28;19910;-43
2023/08/24 10:27:35;;;;;;;;;;;;;;;;;;5009468;28;19916;-42
2023/08/24 10:30:01;;;;;;;;;;;;;;;;;;5008767;28;19932;-42
2023/08/24 10:32:27;;;;;;;;;;;;;;;;;;5008992;28;19913;-42
2023/08/24 10:34:53;;;;;;;;;;;;;;;;;;5007005;28;19909;-41
2023/08/24 10:37:19;;;;;;;;;;;;;;;;;;5008808;28;19914;-41
2023/08/24 10:39:45;;;;;;;;;;;;;;;;;;5007865;28;19917;-42
2023/08/24 10:42:11;;;;;;;;;;;;;;;;;;5008778;28;20372;-41
2023/08/24 10:44:37;;;;;;;;;;;;;;;;;;5009334;28;20025;-42
2023/08/24 10:47:03;;;;;;;;;;;;;;;;;;5008531;28;19993;-41
2023/08/24 10:49:29;;;;;;;;;;;;;;;;;;5008243;28;20281;-42
2023/08/24 10:51:55;;;;;;;;;;;;;;;;;;5008815;28;19916;-41
2023/08/24 10:54:21;;;;;;;;;;;;;;;;;;5008492;28;19972;-42
2023/08/24 10:56:46;;;;;;;;;;;;;;;;;;5008326;28;20355;-42
2023/08/24 10:59:13;;;;;;;;;;;;;;;;;;5008471;28;19909;-42
2023/08/24 11:01:39;;;;;;;;;;;;;;;;;;5008348;28;19910;-42
2023/08/24 11:04:04;;;;;;;;;;;;;;;;;;5008561;28;19980;-41
2023/08/24 11:06:30;;;;;;;;;;;;;;;;;;5008189;28;19910;-42
2023/08/24 11:08:56;;;;;;;;;;;;;;;;;;5008288;28;19909;-42
2023/08/24 11:11:22;;;;;;;;;;;;;;;;;;5008605;28;19917;-42
2023/08/24 11:13:48;;;;;;;;;;;;;;;;;;5006326;28;19909;-41
2023/08/24 11:16:14;;;;;;;;;;;;;;;;;;5007168;28;19932;-42
2023/08/24 11:18:40;;;;;;;;;;;;;;;;;;5003440;28;20297;-44
2023/08/24 11:21:06;;;;;;;;;;;;;;;;;;5004975;28;19968;-43
2023/08/24 11:23:32;;;;;;;;;;;;;;;;;;5008872;28;19909;-44
2023/08/24 11:25:59;;;;;;;;;;;;;;;;;;5007430;28;19929;-43
2023/08/24 11:28:25;;;;;;;;;;;;;;;;;;5007929;28;20403;-42
2023/08/24 11:30:51;;;;;;;;;;;;;;;;;;5006455;28;19918;-44
2023/08/24 11:33:17;;;;;;;;;;;;;;;;;;5006412;28;19924;-45
2023/08/24 11:35:43;;;;;;;;;;;;;;;;;;5007452;28;19913;-44
2023/08/24 11:38:09;;;;;;;;;;;;;;;;;;5005895;28;19964;-44
2023/08/24 11:40:35;;;;;;;;;;;;;;;;;;5006215;28;19953;-43
2023/08/24 11:43:01;;;;;;;;;;;;;;;;;;5008042;28;19910;-44
2023/08/24 11:45:27;;;;;;;;;;;;;;;;;;5007768;28;19921;-44
2023/08/24 11:47:53;;;;;;;;;;;;;;;;;;5004878;28;19913;-45
2023/08/24 11:50:19;;;;;;;;;;;;;;;;;;5006262;28;20395;-44
2023/08/24 11:52:45;;;;;;;;;;;;;;;;;;5009280;28;19936;-46
2023/08/24 11:55:12;;;;;;;;;;;;;;;;;;5010264;28;20313;-46
2023/08/24 11:57:37;;;;;;;;;;;;;;;;;;5009272;28;20005;-45
2023/08/24 12:00:04;;;;;;;;;;;;;;;;;;5007536;28;20414;-45
2023/08/24 12:02:30;;;;;;;;;;;;;;;;;;5010413;28;20129;-44
2023/08/24 12:04:56;;;;;;;;;;;;;;;;;;5009782;28;19916;-46
2023/08/24 12:07:22;;;;;;;;;;;;;;;;;;5011204;28;19914;-45
2023/08/24 12:09:52;;;;;;;;;;;;;;;;;;5008753;28;20107;-47
2023/08/24 12:12:20;;;;;;;;;;;;;;;;;;5009894;28;20300;-46
2023/08/24 12:14:46;;;;;;;;;;;;;;;;;;5008489;28;20013;-45
2023/08/24 12:17:12;;;;;;;;;;;;;;;;;;5007485;28;20007;-47
2023/08/24 12:19:39;;;;;;;;;;;;;;;;;;5007415;28;19917;-45
2023/08/24 12:22:05;;;;;;;;;;;;;;;;;;5005537;28;19913;-45
2023/08/24 12:24:31;;;;;;;;;;;;;;;;;;5008484;28;20299;-45
2023/08/24 12:27:03;;;;;;;;;;;;;;;;;;5006122;28;19917;-45
2023/08/24 12:29:29;;;;;;;;;;;;;;;;;;5002252;28;19952;-45
2023/08/24 12:31:55;;;;;;;;;;;;;;;;;;5007450;28;19953;-46
2023/08/24 12:34:21;;;;;;;;;;;;;;;;;;5007803;28;20465;-45
2023/08/24 12:36:46;;;;;;;;;;;;;;;;;;5005032;28;19928;-46
2023/08/24 12:39:12;;;;;;;;;;;;;;;;;;5008027;28;20493;-46
2023/08/24 12:41:38;;;;;;;;;;;;;;;;;;5006012;28;19948;-45
2023/08/24 12:44:05;;;;;;;;;;;;;;;;;;5006717;28;20403;-46
2023/08/24 12:46:30;;;;;;;;;;;;;;;;;;5006204;28;19989;-45
2023/08/24 12:48:56;;;;;;;;;;;;;;;;;;5004800;28;20023;-46
2023/08/24 12:51:24;;;;;;;;;;;;;;;;;;5006091;28;19918;-45
2023/08/24 12:53:50;;;;;;;;;;;;;;;;;;5008390;28;19914;-45
2023/08/24 12:56:16;;;;;;;;;;;;;;;;;;5005954;28;19921;-45
2023/08/24 12:58:42;;;;;;;;;;;;;;;;;;5007632;28;20381;-43
2023/08/24 13:01:08;;;;;;;;;;;;;;;;;;5008432;28;20001;-43
2023/08/24 13:03:35;;;;;;;;;;;;;;;;;;5005297;28;20450;-43
2023/08/24 13:06:02;;;;;;;;;;;;;;;;;;5008168;28;19913;-42
2023/08/24 13:08:28;;;;;;;;;;;;;;;;;;5006661;28;19921;-43
2023/08/24 13:10:54;;;;;;;;;;;;;;;;;;5005741;28;19965;-42
2023/08/24 13:13:20;;;;;;;;;;;;;;;;;;5008725;28;19963;-42
2023/08/24 13:15:46;;;;;;;;;;;;;;;;;;5007646;28;19920;-43
2023/08/24 13:18:12;;;;;;;;;;;;;;;;;;5008275;28;19917;-44
2023/08/24 13:20:38;;;;;;;;;;;;;;;;;;5007145;28;20364;-45
2023/08/24 13:23:04;;;;;;;;;;;;;;;;;;5006649;28;19917;-41
2023/08/24 13:25:30;;;;;;;;;;;;;;;;;;5007872;28;19964;-43
2023/08/24 13:27:56;;;;;;;;;;;;;;;;;;5008261;28;19916;-41
2023/08/24 13:30:22;;;;;;;;;;;;;;;;;;4990998;28;20043;-41
2023/08/24 13:32:48;;;;;;;;;;;;;;;;;;5008069;28;19909;-44
2023/08/24 13:35:14;;;;;;;;;;;;;;;;;;5008399;28;19917;-44
2023/08/24 13:37:40;;;;;;;;;;;;;;;;;;5007972;28;20335;-44
2023/08/24 13:40:07;;;;;;;;;;;;;;;;;;5006303;28;19915;-46
2023/08/24 13:42:33;;;;;;;;;;;;;;;;;;5007781;28;19977;-45
2023/08/24 13:44:59;;;;;;;;;;;;;;;;;;5007758;28;19999;-47
2023/08/24 13:47:25;;;;;;;;;;;;;;;;;;5006436;28;20281;-44
2023/08/24 13:49:51;;;;;;;;;;;;;;;;;;5006358;28;19951;-45
2023/08/24 13:52:18;;;;;;;;;;;;;;;;;;5007547;28;19932;-46
2023/08/24 13:54:44;;;;;;;;;;;;;;;;;;5008029;28;20384;-45
2023/08/24 13:57:10;;;;;;;;;;;;;;;;;;4988434;28;20024;-45
2023/08/24 13:59:36;;;;;;;;;;;;;;;;;;5005394;28;19914;-44
2023/08/24 14:02:03;;;;;;;;;;;;;;;;;;5008746;28;19909;-45
2023/08/24 14:04:29;;;;;;;;;;;;;;;;;;5007850;28;20415;-44
2023/08/24 14:06:55;;;;;;;;;;;;;;;;;;5005291;28;19953;-45
2023/08/24 14:09:21;;;;;;;;;;;;;;;;;;5007779;28;19916;-44
2023/08/24 14:11:47;;;;;;;;;;;;;;;;;;5006933;28;19967;-45
2023/08/24 14:14:13;;;;;;;;;;;;;;;;;;5007210;28;19920;-45
2023/08/24 14:16:39;;;;;;;;;;;;;;;;;;4999668;28;20020;-45
2023/08/24 14:19:07;;;;;;;;;;;;;;;;;;5005846;28;20297;-46
2023/08/24 14:21:33;;;;;;;;;;;;;;;;;;5005132;28;19921;-45
2023/08/24 14:23:59;;;;;;;;;;;;;;;;;;5004767;28;19957;-46
2023/08/24 14:26:24;;;;;;;;;;;;;;;;;;5002892;28;19968;-46
2023/08/24 14:28:50;;;;;;;;;;;;;;;;;;5007457;28;20463;-44
2023/08/24 14:31:16;;;;;;;;;;;;;;;;;;4999962;28;19988;-48
2023/08/24 14:33:42;;;;;;;;;;;;;;;;;;4989672;28;19914;-46
